Miami, Florida
Traffic Map
Current Weather Conditions
Miami, Florida
Clear
Clear
14°
Feels Like: 14°
Wind Chill: 14° Ceiling: Unl
Heat Index: 14° Visibility: 10mi
Dew Point: Wind: 5mph
Humidity: 69% Direction: 350° (N)
Pressure: 30.26in Gusts: 0mph
Raw Report DataKMIA 120653Z 35004KT 10SM CLR 14/08 A3026 RMK AO2 SLP248 T01390083
Traffic Incident Summary
Active as of:
Severity:
Category:
InformationThere was an issue retrieving the traffic information for this location. Please try a different location or try again shortly.
Advertisements
Track Severe Weather on mobile